Time;durP1;ratioP1;P1;durP2;ratioP2;P2;SDS_P1;SDS_P2;PMS_P1;PMS_P2;Temp;Humidity;BMP_temperature;BMP_pressure;BME280_temperature;BME280_humidity;BME280_pressure;Samples;Min_cycle;Max_cycle;Signal;HPM_P1;HPM_P2
2023/06/12 00:01:49;;;;;;;7.82;4.05;;;19.40;81.50;;;;;;4995627;28;20064;-72
2023/06/12 00:04:15;;;;;;;7.78;4.07;;;19.30;81.90;;;;;;5011940;28;20052;-72
2023/06/12 00:06:41;;;;;;;7.57;4.00;;;19.30;82.40;;;;;;5012269;28;20080;-72
2023/06/12 00:09:07;;;;;;;7.43;3.80;;;19.30;82.90;;;;;;4995536;28;20084;-71
2023/06/12 00:11:33;;;;;;;8.15;3.88;;;19.30;83.50;;;;;;4995553;28;20132;-71
2023/06/12 00:13:59;;;;;;;6.63;3.58;;;19.20;83.80;;;;;;4995441;28;20038;-71
2023/06/12 00:16:25;;;;;;;6.90;3.92;;;19.20;84.10;;;;;;4995707;28;20050;-71
2023/06/12 00:18:52;;;;;;;6.38;3.85;;;19.20;84.40;;;;;;4995474;28;20465;-71
2023/06/12 00:21:19;;;;;;;12.10;3.80;;;19.20;84.70;;;;;;5011852;28;20038;-71
2023/06/12 00:23:46;;;;;;;8.82;3.85;;;19.20;86.60;;;;;;5012071;28;20128;-71
2023/06/12 00:26:11;;;;;;;6.68;3.67;;;19.10;86.50;;;;;;5011921;28;20489;-71
2023/06/12 00:28:37;;;;;;;6.85;3.75;;;19.10;87.30;;;;;;5011783;28;20044;-71
2023/06/12 00:31:03;;;;;;;7.05;3.70;;;19.10;87.30;;;;;;5012018;28;20394;-71
2023/06/12 00:33:29;;;;;;;7.18;3.65;;;19.10;87.30;;;;;;5011432;28;20086;-71
2023/06/12 00:35:55;;;;;;;7.43;3.90;;;19.10;87.50;;;;;;5012072;28;20427;-71
2023/06/12 00:38:21;;;;;;;8.30;3.80;;;19.00;88.20;;;;;;4995419;28;20042;-71
2023/06/12 00:40:48;;;;;;;7.80;3.65;;;19.00;88.20;;;;;;5011807;28;20390;-71
2023/06/12 00:43:16;;;;;;;7.55;3.65;;;19.00;88.70;;;;;;4995529;28;20038;-71
2023/06/12 00:45:42;;;;;;;8.93;3.80;;;18.90;90.00;;;;;;5011613;28;20096;-71
2023/06/12 00:48:08;;;;;;;8.20;3.58;;;18.80;90.40;;;;;;5011783;28;20041;-71
2023/06/12 00:50:36;;;;;;;7.25;3.60;;;18.70;90.50;;;;;;5011526;28;20038;-72
2023/06/12 00:53:01;;;;;;;8.65;3.75;;;18.70;90.70;;;;;;5013676;28;20037;-71
2023/06/12 00:55:31;;;;;;;7.53;3.35;;;18.60;91.30;;;;;;5015110;28;20042;-71
2023/06/12 00:57:58;;;;;;;7.88;3.85;;;18.60;91.30;;;;;;5015335;28;20175;-72
2023/06/12 01:00:25;;;;;;;8.27;3.95;;;18.60;91.50;;;;;;4999162;28;20397;-72
2023/06/12 01:02:54;;;;;;;6.70;3.40;;;18.60;91.90;;;;;;5014977;28;20071;-72
2023/06/12 01:05:37;;;;;;;7.82;3.60;;;18.50;91.90;;;;;;5015241;28;20401;-72
2023/06/12 01:08:28;;;;;;;7.50;3.63;;;18.50;92.60;;;;;;4983638;28;20052;-72
2023/06/12 01:10:59;;;;;;;6.70;3.40;;;18.40;92.50;;;;;;5014667;28;20085;-71
2023/06/12 01:13:26;;;;;;;7.00;3.50;;;18.40;92.60;;;;;;5015090;28;20045;-71
2023/06/12 01:15:52;;;;;;;5.80;3.10;;;18.30;92.70;;;;;;5015079;28;20401;-71
2023/06/12 01:18:20;;;;;;;7.20;3.58;;;18.30;93.00;;;;;;4998685;28;20042;-71
2023/06/12 01:20:51;;;;;;;7.65;3.63;;;18.30;93.80;;;;;;5014632;28;20046;-71
2023/06/12 01:23:36;;;;;;;8.48;3.72;;;18.20;93.80;;;;;;5014917;28;20101;-71
2023/06/12 01:26:36;;;;;;;7.65;3.60;;;18.00;94.50;;;;;;5014578;28;20042;-71
2023/06/12 01:29:23;;;;;;;9.25;3.60;;;18.00;94.90;;;;;;5014531;28;20067;-71
2023/06/12 01:32:07;;;;;;;9.57;3.50;;;17.90;95.20;;;;;;5014788;28;20038;-71
2023/06/12 01:34:51;;;;;;;8.27;3.58;;;17.90;95.10;;;;;;5014381;28;20046;-71
2023/06/12 01:37:32;;;;;;;7.32;3.72;;;17.80;95.30;;;;;;4998244;28;20481;-71
2023/06/12 01:40:07;;;;;;;8.70;3.53;;;17.80;96.00;;;;;;5014451;28;20045;-71
2023/06/12 01:42:33;;;;;;;8.52;3.65;;;17.80;96.50;;;;;;5014482;28;20464;-71
2023/06/12 01:44:59;;;;;;;7.53;3.40;;;17.70;95.90;;;;;;4981820;28;20042;-71
2023/06/12 01:47:25;;;;;;;9.13;4.00;;;17.70;96.70;;;;;;5014547;28;20064;-71
2023/06/12 01:49:51;;;;;;;6.68;3.60;;;17.60;97.10;;;;;;5014101;28;20093;-71
2023/06/12 01:52:17;;;;;;;7.47;3.42;;;17.40;98.10;;;;;;5014062;28;20080;-71
2023/06/12 01:54:47;;;;;;;9.18;3.78;;;17.40;97.80;;;;;;5014067;28;20085;-71
2023/06/12 01:57:14;;;;;;;8.23;3.63;;;17.40;97.80;;;;;;4998638;28;20046;-71
2023/06/12 01:59:40;;;;;;;10.23;3.58;;;17.30;98.40;;;;;;5014172;28;20432;-71
2023/06/12 02:02:05;;;;;;;7.43;3.45;;;17.40;98.00;;;;;;5013945;28;20038;-71
2023/06/12 02:04:31;;;;;;;8.32;3.78;;;17.40;98.10;;;;;;5013387;28;20049;-71
2023/06/12 02:06:57;;;;;;;6.53;3.50;;;17.30;98.60;;;;;;5013694;28;20041;-71
2023/06/12 02:09:23;;;;;;;8.10;3.50;;;17.20;99.10;;;;;;5013798;28;20041;-71
2023/06/12 02:11:49;;;;;;;8.20;4.00;;;17.20;99.20;;;;;;5013866;28;20049;-72
2023/06/12 02:14:17;;;;;;;8.18;3.72;;;17.10;99.50;;;;;;5013611;28;20034;-71
2023/06/12 02:16:45;;;;;;;9.57;3.95;;;17.10;99.90;;;;;;5013603;28;20121;-71
2023/06/12 02:19:12;;;;;;;8.40;3.80;;;17.00;99.90;;;;;;4997262;28;20065;-71
2023/06/12 02:21:38;;;;;;;9.32;3.72;;;17.00;99.90;;;;;;5013553;28;20077;-71
2023/06/12 02:24:04;;;;;;;7.32;3.67;;;17.00;99.90;;;;;;5013491;28;20084;-71
2023/06/12 02:26:30;;;;;;;10.48;3.90;;;17.00;99.90;;;;;;4997104;28;20048;-71
2023/06/12 02:29:10;;;;;;;8.82;4.20;;;17.00;99.90;;;;;;5013380;28;20485;-71
2023/06/12 02:31:36;;;;;;;9.20;4.22;;;17.00;99.90;;;;;;5013367;28;20042;-71
2023/06/12 02:34:02;;;;;;;7.25;3.97;;;17.00;99.90;;;;;;5013052;28;20140;-71
2023/06/12 02:36:29;;;;;;;8.43;3.90;;;16.90;99.90;;;;;;5013331;28;20038;-71
2023/06/12 02:38:55;;;;;;;8.65;4.25;;;16.90;99.90;;;;;;5013287;28;20121;-71
2023/06/12 02:41:22;;;;;;;7.60;3.80;;;16.90;99.90;;;;;;4997009;28;20097;-72
2023/06/12 02:43:47;;;;;;;9.30;4.35;;;16.90;99.90;;;;;;5012958;28;20054;-71
2023/06/12 02:46:13;;;;;;;8.48;4.35;;;16.90;99.90;;;;;;4997030;28;20046;-71
2023/06/12 02:48:39;;;;;;;7.43;4.10;;;16.90;99.90;;;;;;4980893;28;20103;-71
2023/06/12 02:51:05;;;;;;;7.97;4.22;;;16.90;99.90;;;;;;4997018;28;20057;-71
2023/06/12 02:53:31;;;;;;;8.02;3.70;;;16.80;99.90;;;;;;4996774;28;20375;-71
2023/06/12 02:55:57;;;;;;;10.00;4.63;;;16.80;99.90;;;;;;4996901;28;20124;-71
2023/06/12 02:58:23;;;;;;;7.47;3.97;;;16.70;99.90;;;;;;5013008;28;20125;-71
2023/06/12 03:00:48;;;;;;;7.95;3.40;;;16.70;99.90;;;;;;5012773;28;20045;-71
2023/06/12 03:03:14;;;;;;;8.25;3.67;;;16.60;99.90;;;;;;5012845;28;20446;-71
2023/06/12 03:05:41;;;;;;;8.45;3.60;;;16.60;99.90;;;;;;5012667;28;20417;-71
2023/06/12 03:08:08;;;;;;;7.32;3.92;;;16.50;99.90;;;;;;5012676;28;20049;-71
2023/06/12 03:10:35;;;;;;;7.20;3.97;;;16.40;99.90;;;;;;5013020;28;20125;-71
2023/06/12 03:13:00;;;;;;;7.65;3.65;;;16.50;99.90;;;;;;5012577;28;20042;-71
2023/06/12 03:15:27;;;;;;;6.93;3.92;;;16.50;99.90;;;;;;5012335;28;20052;-71
2023/06/12 03:17:52;;;;;;;7.53;3.83;;;16.50;99.90;;;;;;5012825;28;20038;-72
2023/06/12 03:20:18;;;;;;;7.50;3.53;;;16.50;99.90;;;;;;4996220;28;20044;-71
2023/06/12 03:22:44;;;;;;;7.95;3.67;;;16.50;99.90;;;;;;5012802;28;20125;-71
2023/06/12 03:25:10;;;;;;;11.27;4.32;;;16.60;99.90;;;;;;5012394;28;20052;-71
2023/06/12 03:27:37;;;;;;;9.25;4.57;;;16.50;99.90;;;;;;5012370;28;20060;-71
2023/06/12 03:30:03;;;;;;;7.47;4.40;;;16.30;99.90;;;;;;5012348;28;20042;-71
2023/06/12 03:32:30;;;;;;;7.60;4.28;;;16.20;99.90;;;;;;4995792;28;20096;-72
2023/06/12 03:34:55;;;;;;;8.23;3.85;;;16.20;99.90;;;;;;5012322;28;20046;-71
2023/06/12 03:37:22;;;;;;;10.80;4.47;;;16.20;99.90;;;;;;5012560;28;20034;-71
2023/06/12 03:39:47;;;;;;;9.00;4.50;;;16.20;99.90;;;;;;4980102;28;20045;-71
2023/06/12 03:42:15;;;;;;;8.48;4.78;;;16.20;99.90;;;;;;5012384;28;20041;-71
2023/06/12 03:44:40;;;;;;;8.20;4.43;;;16.10;99.90;;;;;;5012355;28;20392;-72
2023/06/12 03:47:06;;;;;;;9.88;4.47;;;16.10;99.90;;;;;;4996020;28;20159;-71
2023/06/12 03:49:32;;;;;;;7.35;3.88;;;16.00;99.90;;;;;;5012080;28;20073;-71
2023/06/12 03:51:58;;;;;;;10.05;4.55;;;16.00;99.90;;;;;;4995737;28;20104;-71
2023/06/12 03:54:23;;;;;;;9.30;4.30;;;16.10;99.90;;;;;;5012030;28;20037;-71
2023/06/12 03:56:49;;;;;;;7.68;4.13;;;16.10;99.90;;;;;;4995608;28;20042;-71
2023/06/12 03:59:16;;;;;;;7.70;3.97;;;16.10;99.90;;;;;;5012085;28;20041;-71
2023/06/12 04:01:42;;;;;;;6.30;3.50;;;16.20;99.90;;;;;;5011999;28;20057;-71
2023/06/12 04:04:09;;;;;;;7.35;3.63;;;16.10;99.90;;;;;;5011928;28;20128;-71
2023/06/12 04:06:40;;;;;;;9.35;4.38;;;16.20;99.90;;;;;;5012219;28;20041;-71
2023/06/12 04:09:09;;;;;;;10.70;4.28;;;16.20;99.90;;;;;;5011867;28;20065;-71
2023/06/12 04:11:35;;;;;;;7.80;4.10;;;16.20;99.90;;;;;;5011961;28;20042;-71
2023/06/12 04:14:01;;;;;;;9.35;4.40;;;16.20;99.90;;;;;;5012042;28;20042;-71
2023/06/12 04:16:27;;;;;;;10.00;4.03;;;16.30;99.90;;;;;;5012058;28;20042;-71
2023/06/12 04:18:53;;;;;;;10.07;4.20;;;16.30;99.90;;;;;;5011764;28;20092;-71
2023/06/12 04:21:21;;;;;;;9.30;4.57;;;16.30;99.90;;;;;;5011775;28;20034;-71
2023/06/12 04:23:47;;;;;;;8.05;4.45;;;16.30;99.90;;;;;;5011741;28;20046;-71
2023/06/12 04:26:16;;;;;;;8.45;4.68;;;16.20;99.90;;;;;;5012061;28;20046;-71
2023/06/12 04:28:42;;;;;;;9.32;4.80;;;16.20;99.90;;;;;;4998769;28;20042;-71
2023/06/12 04:31:08;;;;;;;8.20;5.13;;;16.20;99.90;;;;;;5015632;28;20100;-71
2023/06/12 04:33:35;;;;;;;10.65;4.90;;;16.20;99.90;;;;;;4982971;28;20054;-71
2023/06/12 04:36:03;;;;;;;10.60;5.35;;;16.20;99.90;;;;;;4999584;28;20445;-71
2023/06/12 04:38:32;;;;;;;8.68;4.57;;;16.20;99.90;;;;;;5015481;28;20037;-71
2023/06/12 04:40:58;;;;;;;9.27;4.68;;;16.20;99.90;;;;;;5015422;28;20046;-71
2023/06/12 04:43:25;;;;;;;7.90;4.72;;;16.20;99.90;;;;;;5015495;28;20069;-71
2023/06/12 04:45:52;;;;;;;12.50;5.10;;;16.30;99.90;;;;;;5015250;28;20078;-71
2023/06/12 04:48:19;;;;;;;8.85;4.78;;;16.30;99.90;;;;;;5015308;28;20046;-71
2023/06/12 04:50:48;;;;;;;13.52;5.70;;;16.40;99.90;;;;;;5015477;28;20042;-71
2023/06/12 04:53:17;;;;;;;9.35;4.97;;;16.40;99.90;;;;;;5015187;28;20139;-71
2023/06/12 04:55:50;;;;;;;9.20;4.97;;;16.50;99.90;;;;;;5015095;28;20045;-71
2023/06/12 04:58:17;;;;;;;11.20;5.68;;;16.60;99.90;;;;;;4998833;28;20081;-71
2023/06/12 05:00:47;;;;;;;10.55;4.97;;;16.80;99.90;;;;;;5015161;28;20042;-71
2023/06/12 05:03:17;;;;;;;10.77;5.30;;;17.00;99.90;;;;;;4999426;28;20049;-71
2023/06/12 05:05:44;;;;;;;10.25;5.65;;;17.10;99.90;;;;;;4998608;28;20124;-71
2023/06/12 05:08:11;;;;;;;11.13;5.60;;;17.40;99.90;;;;;;4998822;28;20033;-72
2023/06/12 05:10:37;;;;;;;8.85;5.35;;;17.70;99.90;;;;;;5015085;28;20520;-71
2023/06/12 05:13:03;;;;;;;8.90;5.80;;;18.00;99.90;;;;;;5014881;28;20042;-72
2023/06/12 05:15:29;;;;;;;10.07;5.43;;;18.10;99.90;;;;;;4943662;28;20136;-71
2023/06/12 05:17:55;;;;;;;11.07;5.25;;;18.20;99.90;;;;;;4998386;28;20045;-73
2023/06/12 05:20:21;;;;;;;10.05;5.90;;;18.20;99.90;;;;;;4998489;28;20096;-72
2023/06/12 05:22:47;;;;;;;9.32;5.90;;;18.20;99.90;;;;;;5014823;28;20057;-72
2023/06/12 05:25:15;;;;;;;10.18;5.13;;;17.90;99.90;;;;;;5014666;28;20042;-71
2023/06/12 05:27:41;;;;;;;11.00;5.75;;;18.40;99.90;;;;;;5014608;28;20037;-72
2023/06/12 05:30:07;;;;;;;10.63;5.22;;;18.80;99.90;;;;;;5014490;28;20045;-71
2023/06/12 05:32:34;;;;;;;11.65;5.65;;;19.20;99.90;;;;;;4998364;28;20042;-71
2023/06/12 05:35:01;;;;;;;12.85;5.32;;;19.60;99.90;;;;;;5014351;28;20123;-72
2023/06/12 05:37:27;;;;;;;8.75;5.22;;;20.20;99.90;;;;;;5014414;28;20045;-72
2023/06/12 05:39:55;;;;;;;10.95;5.25;;;20.60;99.90;;;;;;5013396;28;20124;-71
2023/06/12 05:42:21;;;;;;;10.50;5.20;;;21.00;99.70;;;;;;4998269;28;20108;-72
2023/06/12 05:44:47;;;;;;;8.43;4.72;;;21.50;98.60;;;;;;4982095;28;20124;-72
2023/06/12 05:47:13;;;;;;;8.43;4.88;;;22.70;96.20;;;;;;5014209;28;20093;-72
2023/06/12 05:49:39;;;;;;;11.35;5.20;;;23.20;94.70;;;;;;5014179;28;20100;-72
2023/06/12 05:52:07;;;;;;;9.88;5.80;;;22.90;91.70;;;;;;4998230;28;20397;-72
2023/06/12 05:54:33;;;;;;;12.13;5.30;;;23.50;88.10;;;;;;5014146;28;20046;-72
2023/06/12 05:56:59;;;;;;;9.85;5.40;;;23.50;91.10;;;;;;5014256;28;20045;-72
2023/06/12 05:59:25;;;;;;;11.43;5.82;;;24.40;85.60;;;;;;5014027;28;20493;-72
2023/06/12 06:01:51;;;;;;;10.10;5.00;;;23.90;85.10;;;;;;4997639;28;20566;-72
2023/06/12 06:04:16;;;;;;;9.35;5.07;;;24.50;84.50;;;;;;5013895;28;20137;-72
2023/06/12 06:06:42;;;;;;;10.35;4.90;;;24.60;84.30;;;;;;5014146;28;20081;-72
2023/06/12 06:09:08;;;;;;;9.63;5.28;;;24.90;83.50;;;;;;5013915;28;20049;-72
2023/06/12 06:11:34;;;;;;;8.77;5.00;;;25.30;82.70;;;;;;5013777;28;20041;-72
2023/06/12 06:14:00;;;;;;;9.25;5.30;;;25.80;80.00;;;;;;5013580;28;20046;-72
2023/06/12 06:16:26;;;;;;;9.65;5.40;;;25.60;78.00;;;;;;5013620;28;20049;-72
2023/06/12 06:18:52;;;;;;;9.10;4.90;;;25.40;77.70;;;;;;5013577;28;20072;-72
2023/06/12 06:21:18;;;;;;;8.82;5.30;;;25.60;78.60;;;;;;4997265;28;20122;-72
2023/06/12 06:23:44;;;;;;;10.18;5.50;;;25.50;76.80;;;;;;5013602;28;20121;-72
2023/06/12 06:26:10;;;;;;;12.30;5.20;;;25.10;76.30;;;;;;4980941;28;20034;-72
2023/06/12 06:28:36;;;;;;;9.63;5.32;;;25.80;75.20;;;;;;5013667;28;20041;-72
2023/06/12 06:31:03;;;;;;;11.25;5.82;;;25.80;73.40;;;;;;5013443;28;20034;-72
2023/06/12 06:33:30;;;;;;;10.02;5.50;;;25.70;72.40;;;;;;5012955;28;20125;-72
2023/06/12 06:35:56;;;;;;;9.57;5.50;;;25.30;74.00;;;;;;4996969;28;20093;-72
2023/06/12 06:38:24;;;;;;;9.25;5.40;;;25.50;72.70;;;;;;5013309;28;20073;-72
2023/06/12 06:40:51;;;;;;;8.98;5.95;;;25.60;72.70;;;;;;5013042;28;20061;-72
2023/06/12 06:43:17;;;;;;;9.75;6.30;;;26.00;72.10;;;;;;5013449;28;20050;-72
2023/06/12 06:45:43;;;;;;;9.20;5.15;;;25.80;70.20;;;;;;5013008;28;20128;-72
2023/06/12 06:48:10;;;;;;;9.07;5.43;;;26.50;72.10;;;;;;5013043;28;20081;-72
2023/06/12 06:50:36;;;;;;;9.88;5.90;;;26.80;70.40;;;;;;5012795;28;20054;-72
2023/06/12 06:53:02;;;;;;;11.32;5.60;;;26.30;68.10;;;;;;5012945;28;20394;-73
2023/06/12 06:55:28;;;;;;;10.18;5.80;;;26.60;70.50;;;;;;5012877;28;20121;-72
2023/06/12 06:57:55;;;;;;;10.68;5.65;;;27.40;66.00;;;;;;5013107;28;20494;-72
2023/06/12 07:00:22;;;;;;;10.98;5.60;;;27.50;66.30;;;;;;5012907;28;20077;-72
2023/06/12 07:02:51;;;;;;;11.27;5.50;;;27.40;64.60;;;;;;5013089;28;20559;-72
2023/06/12 07:05:17;;;;;;;10.02;5.63;;;27.20;64.90;;;;;;5013031;28;20048;-72
2023/06/12 07:07:48;;;;;;;11.30;6.20;;;27.20;65.50;;;;;;4996741;28;20046;-72
2023/06/12 07:10:15;;;;;;;8.97;5.83;;;27.20;64.00;;;;;;5012661;28;20045;-72
2023/06/12 07:12:40;;;;;;;11.05;5.32;;;27.30;63.70;;;;;;5012654;28;20041;-72
2023/06/12 07:15:07;;;;;;;8.90;5.10;;;27.30;63.00;;;;;;5012666;28;20379;-72
2023/06/12 07:17:33;;;;;;;10.38;5.72;;;27.50;63.90;;;;;;5012595;28;20045;-72
2023/06/12 07:19:59;;;;;;;9.48;5.63;;;27.60;63.20;;;;;;5013083;28;20370;-72
2023/06/12 07:22:27;;;;;;;8.15;5.82;;;28.00;63.30;;;;;;4996252;28;20045;-72
2023/06/12 07:24:53;;;;;;;8.35;5.07;;;28.20;60.90;;;;;;4996094;28;20046;-72
2023/06/12 07:27:19;;;;;;;9.95;5.82;;;28.30;62.10;;;;;;5012392;28;20042;-72
2023/06/12 07:29:45;;;;;;;10.88;5.40;;;28.60;59.90;;;;;;5012374;28;20052;-72
2023/06/12 07:32:11;;;;;;;10.40;5.32;;;28.50;58.20;;;;;;4979972;28;20042;-72
2023/06/12 07:34:37;;;;;;;9.95;5.10;;;28.40;59.20;;;;;;5012152;28;20101;-72
2023/06/12 07:37:04;;;;;;;10.93;5.63;;;28.30;59.20;;;;;;5013577;28;20046;-72
2023/06/12 07:39:30;;;;;;;9.18;5.30;;;28.50;58.50;;;;;;5012465;28;20056;-72
2023/06/12 07:41:56;;;;;;;10.07;5.35;;;28.60;57.60;;;;;;4996125;28;20037;-72
2023/06/12 07:44:22;;;;;;;9.93;5.50;;;28.30;57.50;;;;;;5012256;28;20048;-72
2023/06/12 07:46:48;;;;;;;8.65;4.93;;;28.40;56.70;;;;;;5012107;28;20413;-72
2023/06/12 07:49:15;;;;;;;11.82;5.32;;;28.40;58.20;;;;;;5012433;28;20052;-72
2023/06/12 07:51:41;;;;;;;10.45;5.80;;;28.80;58.50;;;;;;5012145;28;20041;-73
2023/06/12 07:54:07;;;;;;;8.50;5.25;;;28.40;56.80;;;;;;5011986;28;20053;-72
2023/06/12 07:56:33;;;;;;;8.15;5.22;;;28.80;58.00;;;;;;5012279;28;20038;-72
2023/06/12 07:59:06;;;;;;;10.43;5.18;;;28.60;57.70;;;;;;5011913;28;20049;-73
2023/06/12 08:01:34;;;;;;;9.48;5.32;;;28.40;58.60;;;;;;5011400;28;20038;-72
2023/06/12 08:04:03;;;;;;;11.80;5.47;;;28.50;57.90;;;;;;5012244;28;20114;-72
2023/06/12 08:06:33;;;;;;;9.57;5.50;;;28.10;58.80;;;;;;5012218;28;20128;-72
2023/06/12 08:08:58;;;;;;;10.80;5.45;;;27.70;59.90;;;;;;5011903;28;20054;-72
2023/06/12 08:11:24;;;;;;;7.35;5.15;;;28.30;59.20;;;;;;4995654;28;20505;-73
2023/06/12 08:13:50;;;;;;;11.40;5.25;;;28.50;59.50;;;;;;5011708;28;20081;-72
2023/06/12 08:16:16;;;;;;;9.45;5.70;;;28.80;59.00;;;;;;5011901;28;20046;-72
2023/06/12 08:18:42;;;;;;;9.63;5.78;;;28.60;58.90;;;;;;5011823;28;20516;-72
2023/06/12 08:21:08;;;;;;;11.75;6.20;;;28.80;58.20;;;;;;5011787;28;20490;-72
2023/06/12 08:23:34;;;;;;;10.18;5.20;;;28.50;57.20;;;;;;4995551;28;20042;-72
2023/06/12 08:26:00;;;;;;;11.63;6.32;;;28.70;59.00;;;;;;5011930;28;20477;-72
2023/06/12 08:28:26;;;;;;;10.23;5.57;;;28.40;56.90;;;;;;4995827;28;20471;-72
2023/06/12 08:30:57;;;;;;;11.35;5.80;;;28.40;58.50;;;;;;4995323;28;20038;-72
2023/06/12 08:33:24;;;;;;;9.63;5.30;;;28.70;58.60;;;;;;5011610;28;20054;-72
2023/06/12 08:35:50;;;;;;;8.80;5.88;;;28.70;57.80;;;;;;4995341;28;20138;-72
2023/06/12 08:38:16;;;;;;;12.18;5.90;;;28.60;57.80;;;;;;5011960;28;20548;-72
2023/06/12 08:40:42;;;;;;;11.10;6.18;;;28.90;56.80;;;;;;4995579;28;20501;-72
2023/06/12 08:43:08;;;;;;;10.18;5.30;;;28.90;56.50;;;;;;5011626;28;20124;-73
2023/06/12 08:45:40;;;;;;;9.63;5.20;;;29.30;57.10;;;;;;5011576;28;20046;-72
2023/06/12 08:48:07;;;;;;;9.20;5.60;;;29.40;56.90;;;;;;5011637;28;20152;-73
2023/06/12 08:50:34;;;;;;;12.20;5.65;;;29.70;54.00;;;;;;5011597;28;20050;-73
2023/06/12 08:53:01;;;;;;;9.73;5.68;;;29.30;54.40;;;;;;5011713;28;20050;-72
2023/06/12 08:55:28;;;;;;;9.50;5.28;;;29.20;54.60;;;;;;5011542;28;20049;-73
2023/06/12 08:57:54;;;;;;;8.50;5.30;;;29.20;55.80;;;;;;5011472;28;20099;-72
2023/06/12 09:00:21;;;;;;;10.80;5.78;;;29.40;54.60;;;;;;5011660;28;20120;-73
2023/06/12 09:02:53;;;;;;;10.70;5.47;;;29.50;53.60;;;;;;5011650;28;20547;-73
2023/06/12 09:05:29;;;;;;;8.98;5.60;;;29.40;53.80;;;;;;5011506;28;20045;-72
2023/06/12 09:07:57;;;;;;;10.35;5.50;;;29.40;54.50;;;;;;5011384;28;20139;-72
2023/06/12 09:10:23;;;;;;;10.75;5.85;;;29.80;52.80;;;;;;4994954;28;20046;-73
2023/06/12 09:12:53;;;;;;;9.05;5.25;;;29.90;52.30;;;;;;5011671;28;20048;-72
2023/06/12 09:15:21;;;;;;;12.35;5.43;;;29.80;52.70;;;;;;5014992;28;20378;-73
2023/06/12 09:17:48;;;;;;;9.35;5.50;;;29.60;52.50;;;;;;5015096;28;20382;-73
2023/06/12 09:20:24;;;;;;;10.75;5.50;;;30.00;52.20;;;;;;5014730;28;20038;-73
2023/06/12 09:23:00;;;;;;;10.88;5.80;;;30.30;51.20;;;;;;5015003;28;20038;-73
2023/06/12 09:25:40;;;;;;;9.48;4.93;;;30.50;49.70;;;;;;5014581;28;20077;-73
2023/06/12 09:28:09;;;;;;;7.88;5.10;;;30.50;50.90;;;;;;5014957;28;20528;-73
2023/06/12 09:30:39;;;;;;;10.38;5.25;;;30.30;50.60;;;;;;5014498;28;20050;-73
2023/06/12 09:33:06;;;;;;;9.07;5.00;;;30.40;50.20;;;;;;5014425;28;20069;-73
2023/06/12 09:35:32;;;;;;;8.93;5.35;;;30.10;50.70;;;;;;4981992;28;20497;-73
2023/06/12 09:37:58;;;;;;;8.43;5.35;;;30.10;49.50;;;;;;4998416;28;20037;-73
2023/06/12 09:40:24;;;;;;;10.55;5.57;;;30.30;48.60;;;;;;4998070;28;20045;-73
2023/06/12 09:42:50;;;;;;;9.90;5.50;;;30.60;48.60;;;;;;4997922;28;20481;-73
2023/06/12 09:45:18;;;;;;;8.13;5.40;;;30.30;50.30;;;;;;5014346;28;20050;-73
2023/06/12 09:47:46;;;;;;;10.75;5.57;;;30.80;48.20;;;;;;4981988;28;20136;-73
2023/06/12 09:50:13;;;;;;;11.40;5.93;;;30.80;47.90;;;;;;4998314;28;20554;-72
2023/06/12 09:52:43;;;;;;;8.73;5.72;;;30.30;49.60;;;;;;4998052;28;20084;-73
2023/06/12 09:55:17;;;;;;;10.48;5.43;;;30.70;46.70;;;;;;5014091;28;20050;-73
2023/06/12 09:57:48;;;;;;;7.38;5.30;;;30.60;48.90;;;;;;4998028;28;20049;-73
2023/06/12 10:00:17;;;;;;;10.02;5.38;;;30.60;49.40;;;;;;4997779;28;20038;-72
2023/06/12 10:03:04;;;;;;;9.00;5.28;;;30.90;48.80;;;;;;5014002;28;20053;-73
2023/06/12 10:05:41;;;;;;;9.93;5.72;;;31.30;48.00;;;;;;5013922;28;20262;-72
2023/06/12 10:08:07;;;;;;;10.13;5.63;;;31.70;47.30;;;;;;5013831;28;20046;-73
2023/06/12 10:10:39;;;;;;;8.73;5.65;;;31.60;46.90;;;;;;4997551;28;20069;-72
2023/06/12 10:13:04;;;;;;;10.52;5.85;;;31.50;46.30;;;;;;5013743;28;20046;-72
2023/06/12 10:15:31;;;;;;;8.65;5.40;;;31.50;45.90;;;;;;5013708;28;20044;-73
2023/06/12 10:17:58;;;;;;;10.07;5.57;;;31.20;46.80;;;;;;5013703;28;20053;-72
2023/06/12 10:20:25;;;;;;;7.20;5.43;;;31.30;42.90;;;;;;5013652;28;20126;-72
2023/06/12 10:22:55;;;;;;;9.25;5.70;;;30.90;41.00;;;;;;5013773;28;20128;-72
2023/06/12 10:25:21;;;;;;;7.80;5.35;;;31.10;41.20;;;;;;5013217;28;20046;-73
2023/06/12 10:27:48;;;;;;;8.32;5.53;;;31.40;41.70;;;;;;5013553;28;20042;-72
2023/06/12 10:30:17;;;;;;;8.77;5.40;;;31.50;40.80;;;;;;4997087;28;20112;-72
2023/06/12 10:32:44;;;;;;;9.10;5.75;;;31.60;41.40;;;;;;5013702;28;20081;-73
2023/06/12 10:35:10;;;;;;;8.32;5.63;;;31.50;40.90;;;;;;5013068;28;20054;-72
2023/06/12 10:37:46;;;;;;;9.93;6.15;;;31.30;41.60;;;;;;5013334;28;20104;-72
2023/06/12 10:40:18;;;;;;;7.47;5.90;;;31.00;38.70;;;;;;5013229;28;20042;-73
2023/06/12 10:42:52;;;;;;;7.75;5.65;;;31.20;40.40;;;;;;5013287;28;20073;-72
2023/06/12 10:45:23;;;;;;;8.82;5.70;;;31.70;40.10;;;;;;5013417;28;20493;-72
2023/06/12 10:48:10;;;;;;;8.40;5.60;;;31.80;37.40;;;;;;5013175;28;20041;-73
2023/06/12 10:50:40;;;;;;;8.88;6.10;;;32.10;36.90;;;;;;5013475;28;20391;-72
2023/06/12 10:53:14;;;;;;;7.68;5.65;;;31.90;34.90;;;;;;5012954;28;20049;-72
2023/06/12 10:55:42;;;;;;;6.95;5.43;;;32.10;34.10;;;;;;5012888;28;20058;-72
2023/06/12 10:58:17;;;;;;;9.68;6.05;;;32.20;34.70;;;;;;4997093;28;20385;-72
2023/06/12 11:00:45;;;;;;;8.18;5.80;;;32.40;35.90;;;;;;4997064;28;20042;-73
2023/06/12 11:03:22;;;;;;;10.35;5.88;;;32.70;35.40;;;;;;4996525;28;20046;-73
2023/06/12 11:05:48;;;;;;;8.93;5.68;;;32.90;34.60;;;;;;5012832;28;20103;-73
2023/06/12 11:08:18;;;;;;;7.75;5.65;;;32.90;34.80;;;;;;5013028;28;20061;-73
2023/06/12 11:10:44;;;;;;;8.60;6.03;;;32.90;35.00;;;;;;4996423;28;20064;-73
2023/06/12 11:13:10;;;;;;;10.02;5.88;;;33.00;33.20;;;;;;5012927;28;20132;-72
2023/06/12 11:15:44;;;;;;;8.38;5.70;;;33.00;33.80;;;;;;5012582;28;20133;-72
2023/06/12 11:18:11;;;;;;;9.07;5.90;;;32.90;33.80;;;;;;5012916;28;20440;-72
2023/06/12 11:20:38;;;;;;;8.23;6.00;;;32.20;34.30;;;;;;5012568;28;20045;-72
2023/06/12 11:23:04;;;;;;;8.40;6.03;;;31.90;34.00;;;;;;4996194;28;20092;-73
2023/06/12 11:25:44;;;;;;;11.82;6.32;;;31.50;34.90;;;;;;5012524;28;20052;-73
2023/06/12 11:28:12;;;;;;;8.10;5.47;;;31.40;34.20;;;;;;5012760;28;20048;-72
2023/06/12 11:30:40;;;;;;;8.40;5.93;;;31.10;35.50;;;;;;4980392;28;20397;-72
2023/06/12 11:33:15;;;;;;;9.02;6.45;;;31.70;37.10;;;;;;5012256;28;20073;-73
2023/06/12 11:35:49;;;;;;;8.70;6.22;;;32.10;34.00;;;;;;5012244;28;20514;-72
2023/06/12 11:38:17;;;;;;;7.95;6.05;;;32.40;35.10;;;;;;5011560;28;20034;-72
2023/06/12 11:40:44;;;;;;;8.80;5.80;;;32.50;35.10;;;;;;5012294;28;20121;-72
2023/06/12 11:43:10;;;;;;;8.88;6.22;;;32.60;33.00;;;;;;5012410;28;20490;-72
2023/06/12 11:45:41;;;;;;;8.02;6.05;;;32.60;33.90;;;;;;5012183;28;20188;-72
2023/06/12 11:48:13;;;;;;;9.63;5.55;;;32.40;32.80;;;;;;5012163;28;20073;-72
2023/06/12 11:50:39;;;;;;;7.72;5.88;;;32.70;33.10;;;;;;5012116;28;20056;-73
2023/06/12 11:53:05;;;;;;;10.35;6.07;;;32.80;32.30;;;;;;4995896;28;20048;-73
2023/06/12 11:55:32;;;;;;;8.68;5.88;;;32.60;32.90;;;;;;5011970;28;20042;-72
2023/06/12 11:58:01;;;;;;;9.10;6.30;;;32.20;33.00;;;;;;5012035;28;20042;-72
2023/06/12 12:00:30;;;;;;;7.30;6.25;;;31.90;33.10;;;;;;5012353;28;20041;-72
2023/06/12 12:03:01;;;;;;;8.13;6.00;;;31.50;33.20;;;;;;5012256;28;20088;-72
2023/06/12 12:05:27;;;;;;;;;;;31.30;33.90;;;;;;5012398;28;20046;-72
2023/06/12 12:07:57;;;;;;;8.02;6.05;;;30.60;33.40;;;;;;5011976;28;19940;-73
2023/06/12 12:10:24;;;;;;;7.95;6.10;;;31.00;34.10;;;;;;4995887;28;20041;-72
2023/06/12 12:13:00;;;;;;;9.10;6.20;;;30.60;34.20;;;;;;5012066;28;20104;-72
2023/06/12 12:15:40;;;;;;;12.07;6.45;;;30.60;34.80;;;;;;5011861;28;20072;-72
2023/06/12 12:18:13;;;;;;;8.38;6.25;;;30.20;33.50;;;;;;5011905;28;20045;-72
2023/06/12 12:20:39;;;;;;;7.70;6.18;;;30.10;34.30;;;;;;4995733;28;20076;-72
2023/06/12 12:23:10;;;;;;;8.32;6.10;;;30.30;35.50;;;;;;5011842;28;20042;-73
2023/06/12 12:25:36;;;;;;;8.50;6.20;;;30.30;35.20;;;;;;5011833;28;20088;-72
2023/06/12 12:28:03;;;;;;;8.85;6.10;;;30.30;34.50;;;;;;5012101;28;20046;-72
2023/06/12 12:30:30;;;;;;;7.60;6.10;;;29.90;35.00;;;;;;4995922;28;20053;-73
2023/06/12 12:32:57;;;;;;;9.35;6.00;;;30.00;35.80;;;;;;5011534;28;20057;-72
2023/06/12 12:35:24;;;;;;;8.63;6.60;;;30.10;34.80;;;;;;5011635;28;20084;-72
2023/06/12 12:37:52;;;;;;;8.27;6.05;;;30.30;35.50;;;;;;5011682;28;20045;-72
2023/06/12 12:40:18;;;;;;;8.55;6.30;;;29.90;35.30;;;;;;4995338;28;20049;-72
2023/06/12 12:42:48;;;;;;;9.10;6.03;;;29.80;35.20;;;;;;5011504;28;20042;-72
2023/06/12 12:45:16;;;;;;;8.27;6.10;;;29.80;35.50;;;;;;5011655;28;20077;-73
2023/06/12 12:47:48;;;;;;;7.60;5.95;;;30.00;35.90;;;;;;5012134;28;20081;-72